Flowell, Utah
Current Conditions -  °F | °C
As of 1:35 AM on Saturday 20 Dec 2014 (Local Time) from KDTA Reporting Station
Overcast Overcast  
Wind Chill: 30°   Ceiling: 6500
Heat Index: 38°   Visibility: 10mi
Dew Point: 28°   Wind: 10mph
Humidity: 69%   Direction: 160°SSE
Pressure: 30.13"   Gusts: NA
Location:  38.898°N, 112.594°W
Report Text: KDTA 200835Z AUTO 16009KT 10SM OVC065 03/M02 A3013 RMK AO1 T00311021
Loading
Personal Weather Stations






























Interactive Weather Map New forecast layout! Learn more

10-Day Weather Forecast

Advertisements
Track Severe Weather on mobile